createdAt,value
2022-10-25T00:00:20.099Z,99673.75
2022-10-25T00:02:25.737Z,99670.47
2022-10-25T00:04:30.045Z,99666.00
2022-10-25T00:06:32.320Z,99669.59
2022-10-25T00:08:34.384Z,99670.81
2022-10-25T00:10:36.558Z,99676.03
2022-10-25T00:12:45.925Z,99668.25
2022-10-25T00:14:47.911Z,99678.97
2022-10-25T00:16:49.954Z,99683.63
2022-10-25T00:18:52.914Z,99685.56
2022-10-25T00:20:55.552Z,99677.50
2022-10-25T00:22:57.722Z,99673.91
2022-10-25T00:24:59.739Z,99678.69
2022-10-25T00:27:01.866Z,99669.84
2022-10-25T00:29:04.204Z,99670.84
2022-10-25T00:31:09.516Z,99661.03
2022-10-25T00:33:12.666Z,99660.19
2022-10-25T00:35:14.680Z,99651.25
2022-10-25T00:37:16.742Z,99652.97
2022-10-25T00:39:18.989Z,99652.41
2022-10-25T00:41:25.483Z,99644.47
2022-10-25T00:43:37.572Z,99648.91
2022-10-25T00:45:39.819Z,99650.34
2022-10-25T00:47:49.116Z,99641.13
2022-10-25T00:50:03.273Z,99641.06
2022-10-25T00:52:08.330Z,99631.53
2022-10-25T00:54:13.406Z,99627.47
2022-10-25T00:56:22.567Z,99627.13
2022-10-25T00:58:28.351Z,99620.63
2022-10-25T01:00:30.395Z,99620.72
2022-10-25T01:02:34.290Z,99615.59
2022-10-25T01:04:36.403Z,99614.94
2022-10-25T01:06:43.740Z,99612.97
2022-10-25T01:08:50.616Z,99610.66
2022-10-25T01:10:53.198Z,99612.22
2022-10-25T01:12:56.212Z,99604.72
2022-10-25T01:14:58.650Z,99601.94
2022-10-25T01:17:18.765Z,99605.59
2022-10-25T01:19:48.273Z,99604.72
2022-10-25T01:21:56.994Z,99606.38
2022-10-25T01:23:58.904Z,99605.97
2022-10-25T01:26:38.308Z,99599.22
2022-10-25T01:28:58.250Z,99598.31
2022-10-25T01:31:19.172Z,99600.38
2022-10-25T01:33:43.953Z,99594.53
2022-10-25T01:36:16.092Z,99589.50
2022-10-25T01:38:37.289Z,99590.38
2022-10-25T01:40:53.464Z,99585.50
2022-10-25T01:43:04.534Z,99580.94
2022-10-25T01:45:09.617Z,99582.22
2022-10-25T01:47:20.665Z,99587.00
2022-10-25T01:49:34.851Z,99579.81
2022-10-25T01:51:37.529Z,99581.44
2022-10-25T01:53:50.652Z,99582.72
2022-10-25T01:55:57.758Z,99586.44
2022-10-25T01:58:18.522Z,99581.66
2022-10-25T02:00:23.049Z,99580.22
2022-10-25T02:02:52.845Z,99575.22
2022-10-25T02:05:10.626Z,99572.00
2022-10-25T02:07:48.193Z,99574.81
2022-10-25T02:09:59.182Z,99577.13
2022-10-25T02:12:04.884Z,99579.00
2022-10-25T02:14:15.581Z,99571.03
2022-10-25T02:16:25.598Z,99578.50
2022-10-25T02:20:36.071Z,99571.34
2022-10-25T02:22:39.750Z,99571.22
2022-10-25T02:24:45.992Z,99567.06
2022-10-25T02:26:56.580Z,99566.09
2022-10-25T02:29:00.632Z,99560.50
2022-10-25T02:31:03.818Z,99574.81
2022-10-25T02:33:06.968Z,99577.94
2022-10-25T02:35:15.809Z,99578.78
2022-10-25T02:37:20.644Z,99575.88
2022-10-25T02:39:27.679Z,99578.91
2022-10-25T02:41:34.085Z,99570.97
2022-10-25T02:43:36.735Z,99577.47
2022-10-25T02:45:38.796Z,99565.63
2022-10-25T02:47:40.807Z,99562.34
2022-10-25T02:49:43.456Z,99547.13
2022-10-25T02:51:48.566Z,99563.69
2022-10-25T02:53:50.980Z,99549.47
2022-10-25T02:56:05.213Z,99560.41
2022-10-25T02:58:09.966Z,99549.63
2022-10-25T03:02:19.731Z,99548.97
2022-10-25T03:04:22.095Z,99546.25
2022-10-25T03:06:24.370Z,99539.84
2022-10-25T03:10:37.315Z,99533.25
2022-10-25T03:12:39.586Z,99527.84
2022-10-25T03:14:41.816Z,99533.44
2022-10-25T03:16:44.306Z,99533.34
2022-10-25T03:18:46.390Z,99534.22
2022-10-25T03:20:48.755Z,99533.84
2022-10-25T03:23:53.810Z,99530.56
2022-10-25T03:26:00.720Z,99532.09
2022-10-25T03:28:03.162Z,99531.13
2022-10-25T03:30:05.635Z,99531.31
2022-10-25T03:32:08.182Z,99530.16
2022-10-25T03:34:10.350Z,99521.22
2022-10-25T03:36:13.502Z,99516.00
2022-10-25T03:38:15.458Z,99525.72
2022-10-25T03:40:21.383Z,99515.56
2022-10-25T03:42:23.781Z,99518.19
2022-10-25T03:44:25.713Z,99516.50
2022-10-25T03:46:27.826Z,99513.31
2022-10-25T03:48:30.045Z,99513.91
2022-10-25T03:50:36.252Z,99524.56
2022-10-25T03:52:38.641Z,99516.00
2022-10-25T03:54:44.201Z,99517.94
2022-10-25T03:56:46.315Z,99516.69
2022-10-25T03:58:48.421Z,99516.47
2022-10-25T04:00:50.663Z,99511.63
2022-10-25T04:03:01.734Z,99507.28
2022-10-25T04:05:04.934Z,99522.16
2022-10-25T04:07:07.089Z,99527.28
2022-10-25T04:09:09.637Z,99519.28
2022-10-25T04:11:11.582Z,99529.16
2022-10-25T04:13:13.792Z,99541.44
2022-10-25T04:15:16.223Z,99535.06
2022-10-25T04:17:18.371Z,99541.13
2022-10-25T04:19:20.395Z,99538.34
2022-10-25T04:21:23.253Z,99539.41
2022-10-25T04:23:25.415Z,99547.13
2022-10-25T04:25:28.933Z,99541.63
2022-10-25T04:27:31.011Z,99546.06
2022-10-25T04:29:33.102Z,99539.56
2022-10-25T04:31:35.322Z,99538.47
2022-10-25T04:33:42.217Z,99550.22
2022-10-25T04:35:54.206Z,99549.56
2022-10-25T04:37:58.254Z,99549.25
2022-10-25T04:40:00.574Z,99548.19
2022-10-25T04:42:02.977Z,99554.34
2022-10-25T04:44:05.424Z,99556.91
2022-10-25T04:46:07.492Z,99556.56
2022-10-25T04:48:09.601Z,99564.06
2022-10-25T04:50:11.463Z,99570.34
2022-10-25T04:52:13.608Z,99565.63
2022-10-25T04:54:15.926Z,99557.25
2022-10-25T04:56:18.109Z,99566.19
2022-10-25T04:58:20.138Z,99556.25
2022-10-25T05:00:22.405Z,99565.09
2022-10-25T05:02:25.240Z,99560.53
2022-10-25T05:04:27.767Z,99555.09
2022-10-25T05:06:31.979Z,99563.03
2022-10-25T05:08:36.334Z,99562.94
2022-10-25T05:10:39.533Z,99562.03
2022-10-25T05:12:41.574Z,99564.47
2022-10-25T05:14:44.545Z,99562.81
2022-10-25T05:16:46.677Z,99564.75
2022-10-25T05:18:50.481Z,99565.44
2022-10-25T05:20:57.048Z,99572.81
2022-10-25T05:22:59.260Z,99578.03
2022-10-25T05:25:04.144Z,99574.38
2022-10-25T05:27:06.453Z,99585.34
2022-10-25T05:29:11.971Z,99588.91
2022-10-25T05:31:25.357Z,99596.41
2022-10-25T05:33:27.640Z,99603.28
2022-10-25T05:35:29.736Z,99604.44
2022-10-25T05:37:34.033Z,99601.72
2022-10-25T05:39:39.215Z,99607.28
2022-10-25T05:41:41.393Z,99613.38
2022-10-25T05:43:44.479Z,99616.78
2022-10-25T05:45:46.488Z,99619.41
2022-10-25T05:47:48.614Z,99622.69
2022-10-25T05:49:50.672Z,99630.31
2022-10-25T05:51:52.710Z,99634.03
2022-10-25T05:53:57.031Z,99634.59
2022-10-25T05:56:00.871Z,99636.75
2022-10-25T05:58:04.070Z,99636.75
2022-10-25T06:00:06.962Z,99641.19
2022-10-25T06:02:10.069Z,99646.41
2022-10-25T06:04:13.531Z,99646.25
2022-10-25T06:06:15.976Z,99653.50
2022-10-25T06:08:18.212Z,99652.97
2022-10-25T06:10:45.424Z,99665.00
2022-10-25T06:12:47.859Z,99670.78
2022-10-25T06:14:49.982Z,99672.22
2022-10-25T06:16:52.058Z,99668.63
2022-10-25T06:18:55.088Z,99672.34
2022-10-25T06:21:00.803Z,99664.59
2022-10-25T06:23:02.985Z,99661.97
2022-10-25T06:25:05.766Z,99651.00
2022-10-25T06:27:07.847Z,99651.47
2022-10-25T06:29:10.142Z,99646.47
2022-10-25T06:31:15.556Z,99653.66
2022-10-25T06:33:17.567Z,99663.56
2022-10-25T06:35:19.568Z,99676.19
2022-10-25T06:37:21.702Z,99684.53
2022-10-25T06:39:23.755Z,99682.22
2022-10-25T06:41:29.146Z,99683.22
2022-10-25T06:43:32.893Z,99687.75
2022-10-25T06:45:36.181Z,99680.50
2022-10-25T06:47:41.034Z,99675.16
2022-10-25T06:49:43.110Z,99670.38
2022-10-25T06:51:45.624Z,99670.59
2022-10-25T06:53:47.962Z,99667.88
2022-10-25T06:55:49.973Z,99664.06
2022-10-25T06:57:51.683Z,99662.22
2022-10-25T06:59:55.970Z,99667.66
2022-10-25T07:01:58.423Z,99669.28
2022-10-25T07:04:02.476Z,99672.00
2022-10-25T07:06:07.401Z,99664.75
2022-10-25T07:08:09.784Z,99681.16
2022-10-25T07:10:12.055Z,99683.66
2022-10-25T07:12:13.900Z,99692.81
2022-10-25T07:14:15.901Z,99691.72
2022-10-25T07:16:19.462Z,99688.16
2022-10-25T07:18:21.585Z,99698.13
2022-10-25T07:20:23.658Z,99699.97
2022-10-25T07:22:26.005Z,99697.94
2022-10-25T07:24:28.136Z,99705.13
2022-10-25T07:26:33.041Z,99701.31
2022-10-25T07:28:35.128Z,99702.19
2022-10-25T07:30:36.855Z,99708.59
2022-10-25T07:32:41.665Z,99701.00
2022-10-25T07:34:44.647Z,99702.88
2022-10-25T07:36:46.551Z,99701.97
2022-10-25T07:38:48.742Z,99696.66
2022-10-25T07:40:59.803Z,99697.81
2022-10-25T07:43:02.027Z,99691.09
2022-10-25T07:45:04.230Z,99693.06
2022-10-25T07:47:06.237Z,99706.53
2022-10-25T07:49:08.203Z,99706.66
2022-10-25T07:51:15.423Z,99705.75
2022-10-25T07:53:17.189Z,99698.50
2022-10-25T07:55:21.581Z,99701.09
2022-10-25T07:57:23.578Z,99689.38
2022-10-25T07:59:26.010Z,99697.59
2022-10-25T08:01:29.199Z,99693.94
2022-10-25T08:03:31.982Z,99693.81
2022-10-25T08:05:33.711Z,99705.59
2022-10-25T08:07:36.234Z,99714.69
2022-10-25T08:09:38.767Z,99718.28
2022-10-25T08:11:41.206Z,99715.56
2022-10-25T08:13:43.272Z,99717.31
2022-10-25T08:15:53.089Z,99735.31
2022-10-25T08:18:02.629Z,99738.81
2022-10-25T08:20:05.257Z,99741.31
2022-10-25T08:22:07.070Z,99750.47
2022-10-25T08:24:09.068Z,99753.19
2022-10-25T08:26:11.174Z,99751.34
2022-10-25T08:28:13.483Z,99750.56
2022-10-25T08:30:15.496Z,99752.41
2022-10-25T08:32:17.289Z,99740.97
2022-10-25T08:34:19.295Z,99735.53
2022-10-25T08:36:21.265Z,99742.59
2022-10-25T08:38:23.456Z,99743.47
2022-10-25T08:40:30.090Z,99750.84
2022-10-25T08:42:34.821Z,99767.94
2022-10-25T08:44:55.189Z,99772.50
2022-10-25T08:47:23.152Z,99776.72
2022-10-25T08:50:03.541Z,99782.25
2022-10-25T08:52:17.376Z,99784.66
2022-10-25T08:54:38.107Z,99777.88
2022-10-25T08:56:56.480Z,99774.94
2022-10-25T08:59:02.228Z,99777.66
2022-10-25T09:01:14.045Z,99771.78
2022-10-25T09:03:24.893Z,99772.66
2022-10-25T09:05:42.350Z,99771.28
2022-10-25T09:07:51.416Z,99763.28
2022-10-25T09:10:19.358Z,99760.78
2022-10-25T09:12:38.714Z,99763.22
2022-10-25T09:14:59.157Z,99768.56
2022-10-25T09:17:21.265Z,99767.28
2022-10-25T09:19:34.143Z,99772.34
2022-10-25T09:22:00.472Z,99771.56
2022-10-25T09:24:09.884Z,99775.81
2022-10-25T09:26:26.834Z,99781.38
2022-10-25T09:28:44.479Z,99793.69
2022-10-25T09:30:46.824Z,99801.75
2022-10-25T09:33:01.505Z,99804.47
2022-10-25T09:35:06.867Z,99802.72
2022-10-25T09:37:25.462Z,99797.69
2022-10-25T09:39:44.888Z,99805.53
2022-10-25T09:41:55.163Z,99814.56
2022-10-25T09:44:02.989Z,99813.59
2022-10-25T09:46:20.885Z,99808.16
2022-10-25T09:48:31.739Z,99814.44
2022-10-25T09:50:57.799Z,99813.69
2022-10-25T09:53:05.622Z,99811.84
2022-10-25T09:55:35.257Z,99806.41
2022-10-25T09:57:37.584Z,99808.94
2022-10-25T09:59:39.692Z,99805.22
2022-10-25T10:01:42.399Z,99799.03
2022-10-25T10:03:47.063Z,99801.75
2022-10-25T10:06:02.071Z,99798.91
2022-10-25T10:08:04.361Z,99806.13
2022-10-25T10:10:11.171Z,99820.66
2022-10-25T10:12:31.116Z,99826.22
2022-10-25T10:15:09.846Z,99834.66
2022-10-25T10:17:16.433Z,99832.72
2022-10-25T10:19:22.727Z,99834.25
2022-10-25T10:21:25.072Z,99833.41
2022-10-25T10:23:33.582Z,99832.63
2022-10-25T10:25:35.779Z,99833.59
2022-10-25T10:27:37.676Z,99829.91
2022-10-25T10:29:57.091Z,99829.03
2022-10-25T10:32:22.031Z,99833.09
2022-10-25T10:34:46.002Z,99832.31
2022-10-25T10:36:50.113Z,99832.25
2022-10-25T10:38:52.636Z,99830.38
2022-10-25T10:41:20.749Z,99829.91
2022-10-25T10:43:31.178Z,99839.50
2022-10-25T10:45:37.685Z,99825.91
2022-10-25T10:47:48.990Z,99824.09
2022-10-25T10:49:51.123Z,99832.81
2022-10-25T10:51:53.132Z,99831.91
2022-10-25T10:53:55.250Z,99825.59
2022-10-25T10:56:00.175Z,99831.25
2022-10-25T10:58:05.865Z,99823.97
2022-10-25T11:00:25.320Z,99832.13
2022-10-25T11:02:41.395Z,99836.91
2022-10-25T11:04:51.607Z,99833.88
2022-10-25T11:06:53.540Z,99832.03
2022-10-25T11:09:18.139Z,99835.63
2022-10-25T11:11:22.180Z,99829.59
2022-10-25T11:13:25.946Z,99825.97
2022-10-25T11:15:30.191Z,99840.47
2022-10-25T11:17:37.988Z,99840.47
2022-10-25T11:19:51.230Z,99846.56
2022-10-25T11:22:02.283Z,99851.16
2022-10-25T11:24:13.517Z,99859.31
2022-10-25T11:26:33.461Z,99861.16
2022-10-25T11:29:27.998Z,99854.56
2022-10-25T11:31:56.000Z,99851.66
2022-10-25T11:34:33.255Z,99867.09
2022-10-25T11:37:09.774Z,99853.00
2022-10-25T11:39:38.225Z,99852.09
2022-10-25T11:41:54.633Z,99849.50
2022-10-25T11:44:08.763Z,99852.09
2022-10-25T11:46:27.163Z,99844.63
2022-10-25T11:49:13.828Z,99857.53
2022-10-25T11:51:18.816Z,99844.72
2022-10-25T11:53:33.060Z,99846.50
2022-10-25T11:55:45.349Z,99839.84
2022-10-25T11:58:16.806Z,99837.34
2022-10-25T12:00:52.089Z,99837.44
2022-10-25T12:03:02.876Z,99837.91
2022-10-25T12:05:13.974Z,99835.50
2022-10-25T12:07:33.979Z,99834.22
2022-10-25T12:09:53.551Z,99841.09
2022-10-25T12:12:10.402Z,99842.38
2022-10-25T12:14:28.479Z,99834.78
2022-10-25T12:16:32.564Z,99837.28
2022-10-25T12:18:45.089Z,99843.34
2022-10-25T12:20:49.687Z,99845.56
2022-10-25T12:22:56.114Z,99855.00
2022-10-25T12:25:05.614Z,99863.25
2022-10-25T12:27:11.726Z,99867.53
2022-10-25T12:29:33.220Z,99884.44
2022-10-25T12:31:46.072Z,99890.56
2022-10-25T12:34:14.870Z,99883.38
2022-10-25T12:36:45.352Z,99885.78
2022-10-25T12:38:47.800Z,99885.38
2022-10-25T12:40:54.608Z,99870.91
2022-10-25T12:43:17.277Z,99870.47
2022-10-25T12:45:37.854Z,99857.09
2022-10-25T12:47:58.322Z,99865.28
2022-10-25T12:50:06.190Z,99863.34
2022-10-25T12:52:28.653Z,99870.72
2022-10-25T12:54:49.723Z,99864.81
2022-10-25T12:57:15.794Z,99863.53
2022-10-25T12:59:36.220Z,99864.69
2022-10-25T13:02:04.431Z,99868.78
2022-10-25T13:04:23.175Z,99870.50
2022-10-25T13:06:44.769Z,99861.69
2022-10-25T13:08:47.351Z,99861.19
2022-10-25T13:10:58.175Z,99851.47
2022-10-25T13:13:05.645Z,99856.53
2022-10-25T13:15:18.699Z,99852.75
2022-10-25T13:17:20.642Z,99865.84
2022-10-25T13:19:35.934Z,99868.34
2022-10-25T13:21:53.654Z,99867.59
2022-10-25T13:23:59.770Z,99869.44
2022-10-25T13:26:08.484Z,99870.22
2022-10-25T13:28:16.550Z,99873.13
2022-10-25T13:32:25.971Z,99884.88
2022-10-25T13:34:34.604Z,99883.03
2022-10-25T13:40:34.105Z,99867.19
2022-10-25T13:42:38.562Z,99859.03
2022-10-25T13:44:58.587Z,99869.34
2022-10-25T13:47:00.639Z,99871.00
2022-10-25T13:49:23.319Z,99875.34
2022-10-25T13:51:25.742Z,99877.41
2022-10-25T13:53:38.027Z,99878.94
2022-10-25T13:55:58.424Z,99867.50
2022-10-25T13:58:01.487Z,99869.34
2022-10-25T14:00:11.813Z,99874.69
2022-10-25T14:02:20.001Z,99869.81
2022-10-25T14:04:42.128Z,99868.28
2022-10-25T14:06:43.982Z,99871.06
2022-10-25T14:08:55.904Z,99876.53
2022-10-25T14:11:07.867Z,99867.22
2022-10-25T14:13:19.518Z,99870.41
2022-10-25T14:15:48.819Z,99872.28
2022-10-25T14:17:51.086Z,99878.50
2022-10-25T14:20:02.946Z,99873.72
2022-10-25T14:22:13.886Z,99868.28
2022-10-25T14:24:17.423Z,99868.34
2022-10-25T14:26:21.399Z,99860.88
2022-10-25T14:28:31.668Z,99860.31
2022-10-25T14:30:52.980Z,99861.47
2022-10-25T14:33:01.235Z,99857.22
2022-10-25T14:35:03.440Z,99867.22
2022-10-25T14:37:05.701Z,99868.97
2022-10-25T14:39:20.170Z,99877.34
2022-10-25T14:41:26.893Z,99862.56
2022-10-25T14:43:32.136Z,99861.38
2022-10-25T14:45:34.316Z,99865.06
2022-10-25T14:47:36.600Z,99858.31
2022-10-25T14:49:39.021Z,99865.47
2022-10-25T14:51:43.462Z,99859.06
2022-10-25T14:53:56.110Z,99860.13
2022-10-25T14:56:04.053Z,99861.13
2022-10-25T14:58:12.024Z,99861.19
2022-10-25T15:00:19.830Z,99866.47
2022-10-25T15:02:33.152Z,99865.69
2022-10-25T15:04:40.808Z,99872.06
2022-10-25T15:06:43.355Z,99868.78
2022-10-25T15:08:50.648Z,99874.13
2022-10-25T15:11:09.567Z,99882.78
2022-10-25T15:13:21.209Z,99892.47
2022-10-25T15:15:44.247Z,99890.75
2022-10-25T15:17:53.086Z,99889.38
2022-10-25T15:20:03.274Z,99887.94
2022-10-25T15:22:10.747Z,99886.66
2022-10-25T15:24:21.022Z,99882.22
2022-10-25T15:26:33.550Z,99883.16
2022-10-25T15:28:54.823Z,99885.13
2022-10-25T15:31:02.437Z,99876.84
2022-10-25T15:33:10.287Z,99871.22
2022-10-25T15:35:24.401Z,99868.91
2022-10-25T15:37:28.184Z,99864.91
2022-10-25T15:39:31.491Z,99872.06
2022-10-25T15:41:35.482Z,99875.78
2022-10-25T15:43:37.445Z,99878.63
2022-10-25T15:45:40.468Z,99878.72
2022-10-25T15:47:42.778Z,99887.53
2022-10-25T15:49:44.824Z,99894.81
2022-10-25T15:51:47.170Z,99908.22
2022-10-25T15:53:49.565Z,99902.00
2022-10-25T15:55:52.652Z,99901.25
2022-10-25T15:57:55.413Z,99907.44
2022-10-25T15:59:57.487Z,99894.81
2022-10-25T16:01:59.964Z,99893.09
2022-10-25T16:04:01.970Z,99896.88
2022-10-25T16:06:03.883Z,99898.53
2022-10-25T16:08:05.925Z,99900.47
2022-10-25T16:10:08.428Z,99903.09
2022-10-25T16:12:32.856Z,99902.00
2022-10-25T16:14:38.116Z,99896.69
2022-10-25T16:16:41.249Z,99906.56
2022-10-25T16:18:43.331Z,99903.97
2022-10-25T16:20:45.530Z,99909.41
2022-10-25T16:22:48.153Z,99909.22
2022-10-25T16:24:50.715Z,99920.19
2022-10-25T16:26:52.960Z,99911.94
2022-10-25T16:28:55.078Z,99914.34
2022-10-25T16:30:56.983Z,99917.06
2022-10-25T16:32:59.072Z,99916.09
2022-10-25T16:35:01.133Z,99909.78
2022-10-25T16:37:05.499Z,99921.81
2022-10-25T16:39:12.739Z,99916.19
2022-10-25T16:41:29.711Z,99903.97
2022-10-25T16:43:31.746Z,99914.44
2022-10-25T16:45:39.797Z,99922.03
2022-10-25T16:47:41.817Z,99926.47
2022-10-25T16:49:43.924Z,99932.81
2022-10-25T16:51:45.962Z,99927.47
2022-10-25T16:53:48.713Z,99933.13
2022-10-25T16:55:50.866Z,99941.84
2022-10-25T16:57:52.675Z,99938.47
2022-10-25T16:59:57.063Z,99937.56
2022-10-25T17:01:59.257Z,99941.19
2022-10-25T17:04:02.301Z,99942.81
2022-10-25T17:06:22.243Z,99941.19
2022-10-25T17:08:28.206Z,99938.56
2022-10-25T17:10:30.914Z,99948.34
2022-10-25T17:12:32.943Z,99944.84
2022-10-25T17:14:35.442Z,99949.44
2022-10-25T17:16:41.778Z,99949.34
2022-10-25T17:18:43.916Z,99946.63
2022-10-25T17:20:46.031Z,99944.66
2022-10-25T17:22:49.055Z,99945.72
2022-10-25T17:24:51.270Z,99944.56
2022-10-25T17:26:53.378Z,99941.06
2022-10-25T17:28:55.531Z,99943.78
2022-10-25T17:30:58.263Z,99940.19
2022-10-25T17:33:00.771Z,99945.84
2022-10-25T17:39:03.249Z,99947.56
2022-10-25T17:41:05.555Z,99943.50
2022-10-25T17:43:07.877Z,99939.25
2022-10-25T17:45:10.539Z,99944.88
2022-10-25T17:47:13.039Z,99950.31
2022-10-25T17:49:15.482Z,99948.47
2022-10-25T17:51:17.540Z,99951.19
2022-10-25T17:53:19.573Z,99951.28
2022-10-25T17:55:21.574Z,99956.63
2022-10-25T17:57:23.661Z,99961.19
2022-10-25T17:59:27.813Z,99957.69
2022-10-25T18:01:32.118Z,99960.50
2022-10-25T18:03:34.096Z,99956.13
2022-10-25T18:05:39.581Z,99958.25
2022-10-25T18:07:41.562Z,99955.56
2022-10-25T18:09:43.745Z,99947.97
2022-10-25T18:11:46.637Z,99962.44
2022-10-25T18:13:59.291Z,99960.72
2022-10-25T18:16:01.618Z,99951.56
2022-10-25T18:18:03.831Z,99947.97
2022-10-25T18:20:06.647Z,99946.03
2022-10-25T18:22:08.578Z,99952.56
2022-10-25T18:24:13.025Z,99952.56
2022-10-25T18:26:18.571Z,99947.00
2022-10-25T18:28:20.884Z,99940.88
2022-10-25T18:30:23.039Z,99948.94
2022-10-25T18:32:32.097Z,99949.84
2022-10-25T18:34:35.862Z,99948.94
2022-10-25T18:36:37.654Z,99951.66
2022-10-25T18:38:39.713Z,99962.66
2022-10-25T18:40:41.566Z,99961.94
2022-10-25T18:42:58.894Z,99964.19
2022-10-25T18:45:01.360Z,99959.44
2022-10-25T18:47:03.240Z,99955.91
2022-10-25T18:53:06.327Z,99958.19
2022-10-25T18:55:08.497Z,99958.38
2022-10-25T18:57:10.717Z,99951.94
2022-10-25T18:59:12.601Z,99962.63
2022-10-25T19:01:22.869Z,99959.81
2022-10-25T19:03:25.072Z,99957.59
2022-10-25T19:05:29.243Z,99960.19
2022-10-25T19:07:31.278Z,99960.03
2022-10-25T19:09:33.155Z,99970.97
2022-10-25T19:11:35.366Z,99960.19
2022-10-25T19:13:37.959Z,99960.03
2022-10-25T19:15:40.000Z,99964.69
2022-10-25T19:17:42.018Z,99963.69
2022-10-25T19:19:43.962Z,99965.53
2022-10-25T19:21:46.677Z,99967.47
2022-10-25T19:23:48.785Z,99962.03
2022-10-25T19:25:51.182Z,99956.72
2022-10-25T19:27:53.261Z,99966.41
2022-10-25T19:29:57.625Z,99970.69
2022-10-25T19:31:59.589Z,99965.06
2022-10-25T19:34:03.454Z,99976.72
2022-10-25T19:36:09.625Z,99974.28
2022-10-25T19:38:12.176Z,99964.47
2022-10-25T19:40:14.560Z,99968.19
2022-10-25T19:42:17.097Z,99961.69
2022-10-25T19:44:19.091Z,99967.41
2022-10-25T19:46:21.768Z,99964.75
2022-10-25T19:48:24.618Z,99966.59
2022-10-25T19:50:28.984Z,99967.59
2022-10-25T19:52:31.483Z,99966.69
2022-10-25T19:54:35.940Z,99964.75
2022-10-25T19:56:39.330Z,99962.81
2022-10-25T19:58:41.768Z,99972.84
2022-10-25T20:00:43.850Z,99971.19
2022-10-25T20:02:45.771Z,99966.69
2022-10-25T20:04:53.357Z,99977.09
2022-10-25T20:06:55.501Z,99971.47
2022-10-25T20:08:59.000Z,99985.25
2022-10-25T20:11:01.976Z,99983.47
2022-10-25T20:13:04.878Z,99990.75
2022-10-25T20:15:07.752Z,99989.91
2022-10-25T20:17:09.942Z,99990.09
2022-10-25T20:19:14.184Z,99986.78
2022-10-25T20:21:19.607Z,99994.22
2022-10-25T20:23:21.931Z,99996.25
2022-10-25T20:25:25.295Z,99998.91
2022-10-25T20:27:27.361Z,99993.53
2022-10-25T20:29:29.382Z,99990.13
2022-10-25T20:31:34.124Z,99990.00
2022-10-25T20:33:36.090Z,99993.59
2022-10-25T20:35:40.484Z,99986.44
2022-10-25T20:37:42.480Z,99983.47
2022-10-25T20:39:44.537Z,99982.66
2022-10-25T20:41:46.695Z,99985.63
2022-10-25T20:43:51.715Z,99982.50
2022-10-25T20:45:53.910Z,99977.88
2022-10-25T20:47:59.833Z,99983.50
2022-10-25T20:50:02.318Z,99988.53
2022-10-25T20:52:04.733Z,99994.97
2022-10-25T20:54:09.956Z,99991.25
2022-10-25T20:56:13.842Z,99993.31
2022-10-25T20:58:17.428Z,99997.84
2022-10-25T21:00:20.596Z,100004.44
2022-10-25T21:02:22.989Z,99995.69
2022-10-25T21:04:30.663Z,100000.34
2022-10-25T21:06:44.248Z,100003.94
2022-10-25T21:08:46.220Z,99998.00
2022-10-25T21:10:56.166Z,100003.69
2022-10-25T21:12:59.097Z,100002.03
2022-10-25T21:15:01.061Z,99990.19
2022-10-25T21:17:03.090Z,99992.91
2022-10-25T21:19:05.090Z,99998.72
2022-10-25T21:21:09.946Z,100003.44
2022-10-25T21:23:12.424Z,99995.41
2022-10-25T21:25:15.144Z,99999.25
2022-10-25T21:27:20.168Z,99999.34
2022-10-25T21:29:22.705Z,99993.03
2022-10-25T21:31:24.792Z,99984.13
2022-10-25T21:33:26.757Z,99985.19
2022-10-25T21:35:28.646Z,99984.28
2022-10-25T21:37:30.594Z,99987.00
2022-10-25T21:39:33.239Z,99981.25
2022-10-25T21:41:35.590Z,99985.00
2022-10-25T21:43:43.082Z,99980.81
2022-10-25T21:45:50.397Z,99991.81
2022-10-25T21:47:52.988Z,99985.34
2022-10-25T21:49:55.302Z,99991.06
2022-10-25T21:51:57.627Z,99992.19
2022-10-25T21:54:01.454Z,99987.03
2022-10-25T21:56:18.060Z,99990.41
2022-10-25T21:58:22.483Z,100000.16
2022-10-25T22:00:24.452Z,99995.81
2022-10-25T22:02:26.682Z,99990.69
2022-10-25T22:04:28.684Z,100003.53
2022-10-25T22:06:30.807Z,99995.63
2022-10-25T22:08:32.988Z,99992.16
2022-10-25T22:10:34.916Z,99991.53
2022-10-25T22:12:36.915Z,99997.09
2022-10-25T22:14:38.820Z,99994.56
2022-10-25T22:16:41.060Z,100001.84
2022-10-25T22:18:48.079Z,100014.78
2022-10-25T22:21:01.604Z,100015.38
2022-10-25T22:23:03.705Z,100017.91
2022-10-25T22:25:08.905Z,100011.78
2022-10-25T22:27:10.976Z,100014.81
2022-10-25T22:29:15.111Z,100014.91
2022-10-25T22:31:17.943Z,100017.78
2022-10-25T22:33:19.894Z,100010.69
2022-10-25T22:35:21.926Z,100016.19
2022-10-25T22:37:23.942Z,100025.44
2022-10-25T22:39:26.030Z,100023.78
2022-10-25T22:41:29.739Z,100022.19
2022-10-25T22:43:37.255Z,100028.56
2022-10-25T22:45:42.065Z,100032.41
2022-10-25T22:47:47.555Z,100032.47
2022-10-25T22:49:49.859Z,100034.56
2022-10-25T22:51:51.869Z,100033.75
2022-10-25T22:53:54.153Z,100033.97
2022-10-25T22:55:58.728Z,100037.81
2022-10-25T22:58:00.760Z,100037.91
2022-10-25T23:00:03.238Z,100043.53
2022-10-25T23:02:05.391Z,100045.47
2022-10-25T23:04:12.664Z,100040.28
2022-10-25T23:06:17.200Z,100044.09
2022-10-25T23:08:19.164Z,100042.50
2022-10-25T23:10:21.135Z,100039.94
2022-10-25T23:12:23.481Z,100041.75
2022-10-25T23:14:25.659Z,100050.84
2022-10-25T23:16:28.686Z,100048.22
2022-10-25T23:18:30.877Z,100047.44
2022-10-25T23:20:33.219Z,100047.50
2022-10-25T23:22:35.353Z,100039.44
2022-10-25T23:24:37.404Z,100046.84
2022-10-25T23:26:39.826Z,100041.44
2022-10-25T23:28:41.798Z,100039.75
2022-10-25T23:30:44.387Z,100040.72
2022-10-25T23:32:46.491Z,100048.09
2022-10-25T23:34:48.908Z,100046.38
2022-10-25T23:36:51.452Z,100046.44
2022-10-25T23:38:54.946Z,100057.34
2022-10-25T23:40:57.131Z,100056.06
2022-10-25T23:42:59.749Z,100054.38
2022-10-25T23:45:03.373Z,100057.09
2022-10-25T23:47:05.534Z,100051.72
2022-10-25T23:49:07.724Z,100061.84
2022-10-25T23:51:12.430Z,100062.22
2022-10-25T23:53:14.418Z,100057.69
2022-10-25T23:55:16.462Z,100060.44
2022-10-25T23:57:19.192Z,100056.00
2022-10-25T23:59:21.379Z,100060.09
